Time;durP1;ratioP1;P1;durP2;ratioP2;P2;SDS_P1;SDS_P2;PMS_P1;PMS_P2;Temp;Humidity;BMP_temperature;BMP_pressure;BME280_temperature;BME280_humidity;BME280_pressure;Samples;Min_cycle;Max_cycle;Signal;HPM_P1;HPM_P2
2022/11/29 00:01:02;;;;;;;2.65;1.30;;;;;;;6.82;87.21;102161.06;5109437;28;20046;-72
2022/11/29 00:03:28;;;;;;;2.97;1.23;;;;;;;6.74;87.69;102157.38;5099859;28;20027;-73
2022/11/29 00:05:54;;;;;;;1.52;1.00;;;;;;;6.59;88.45;102165.84;5107664;28;20039;-73
2022/11/29 00:08:21;;;;;;;1.35;1.10;;;;;;;6.67;88.21;102159.78;5111010;28;20474;-73
2022/11/29 00:10:46;;;;;;;1.67;1.20;;;;;;;6.38;88.91;102138.34;5100742;28;20055;-73
2022/11/29 00:13:12;;;;;;;2.58;1.45;;;;;;;6.62;87.90;102154.00;5112204;28;20039;-73
2022/11/29 00:15:38;;;;;;;2.20;1.30;;;;;;;6.62;88.09;102158.50;5103704;28;20035;-73
2022/11/29 00:18:05;;;;;;;2.28;1.10;;;;;;;6.50;89.42;102164.00;5106022;28;20059;-73
2022/11/29 00:20:31;;;;;;;1.50;1.05;;;;;;;6.71;87.89;102163.00;5112250;28;20043;-73
2022/11/29 00:22:57;;;;;;;2.80;1.33;;;;;;;6.66;88.36;102160.78;5099818;28;20039;-73
2022/11/29 00:25:22;;;;;;;2.42;1.30;;;;;;;6.57;89.06;102162.44;5112047;28;20032;-73
2022/11/29 00:27:49;;;;;;;1.33;1.00;;;;;;;6.52;89.18;102166.50;5104626;28;20040;-73
2022/11/29 00:30:14;;;;;;;1.50;1.10;;;;;;;6.65;88.11;102156.38;5103599;28;20032;-73
2022/11/29 00:32:40;;;;;;;2.42;1.33;;;;;;;6.65;88.26;102160.91;5111914;28;20032;-73
2022/11/29 00:35:05;;;;;;;1.95;1.30;;;;;;;6.61;88.54;102159.50;5064862;28;20095;-73
2022/11/29 00:37:31;;;;;;;1.83;1.23;;;;;;;6.71;88.32;102158.50;5117322;28;20087;-73
2022/11/29 00:39:56;;;;;;;1.77;1.30;;;;;;;6.73;87.69;102159.22;5088326;28;20085;-73
2022/11/29 00:42:22;;;;;;;1.80;1.27;;;;;;;6.59;89.05;102155.13;5110516;28;20039;-73
2022/11/29 00:44:47;;;;;;;2.75;1.50;;;;;;;6.80;87.73;102162.19;5098706;28;20039;-73
2022/11/29 00:47:12;;;;;;;2.17;1.30;;;;;;;6.78;86.39;102122.16;5111683;28;20031;-73
2022/11/29 00:49:38;;;;;;;2.50;1.50;;;;;;;6.65;87.30;102116.25;5103097;28;20028;-73
2022/11/29 00:52:03;;;;;;;2.00;1.30;;;;;;;6.64;88.12;102146.69;5106036;28;20032;-73
2022/11/29 00:54:29;;;;;;;2.75;1.40;;;;;;;6.68;88.61;102147.25;5093229;28;20036;-73
2022/11/29 00:56:54;;;;;;;2.88;1.35;;;;;;;6.66;88.33;102143.88;5098979;28;20044;-73
2022/11/29 00:59:20;;;;;;;1.83;1.30;;;;;;;6.70;88.21;102151.47;5110603;28;20028;-73
2022/11/29 01:01:45;;;;;;;2.45;1.70;;;;;;;6.82;87.61;102146.81;5103743;28;20027;-73
2022/11/29 01:04:11;;;;;;;1.70;1.13;;;;;;;6.81;87.64;102150.47;5105978;28;20036;-73
2022/11/29 01:06:36;;;;;;;1.92;1.42;;;;;;;6.58;87.43;102115.16;5114578;28;20114;-73
2022/11/29 01:09:03;;;;;;;2.15;1.10;;;;;;;6.67;88.37;102156.25;5103796;28;20028;-73
2022/11/29 01:11:28;;;;;;;1.73;1.13;;;;;;;6.80;87.73;102154.16;5114956;28;20027;-73
2022/11/29 01:13:56;;;;;;;2.13;1.20;;;;;;;6.92;86.53;102138.78;5110132;28;20028;-73
2022/11/29 01:16:24;;;;;;;2.03;1.27;;;;;;;6.98;86.68;102160.47;5107107;28;20032;-73
2022/11/29 01:18:49;;;;;;;2.00;1.40;;;;;;;6.79;87.53;102155.16;5116956;28;20043;-73
2022/11/29 01:21:17;;;;;;;1.73;1.20;;;;;;;6.91;86.93;102162.03;5086439;28;20035;-73
2022/11/29 01:23:44;;;;;;;1.55;1.00;;;;;;;6.79;87.74;102158.66;5112797;28;20035;-73
2022/11/29 01:26:14;;;;;;;2.13;1.30;;;;;;;6.68;88.10;102158.78;5110666;28;20091;-73
2022/11/29 01:28:40;;;;;;;1.70;1.30;;;;;;;6.71;87.97;102155.81;5104414;28;20028;-73
2022/11/29 01:31:07;;;;;;;2.20;1.20;;;;;;;6.64;87.97;102135.16;5115688;28;20406;-73
2022/11/29 01:33:33;;;;;;;1.90;1.00;;;;;;;6.91;87.16;102162.03;5105470;28;20027;-73
2022/11/29 01:35:58;;;;;;;1.33;1.17;;;;;;;7.04;86.33;102157.22;5110038;28;20020;-73
2022/11/29 01:38:24;;;;;;;2.20;1.20;;;;;;;6.87;87.30;102165.13;5112623;28;20081;-73
2022/11/29 01:40:58;;;;;;;2.67;1.35;;;;;;;6.76;87.86;102166.13;5084680;28;20542;-73
2022/11/29 01:43:27;;;;;;;3.47;1.38;;;;;;;6.81;87.69;102158.50;5115435;28;20506;-73
2022/11/29 01:45:53;;;;;;;1.85;1.20;;;;;;;6.75;87.73;102165.25;5107610;28;20482;-73
2022/11/29 01:48:23;;;;;;;2.13;1.30;;;;;;;6.74;87.75;102170.75;5107333;28;20035;-72
2022/11/29 01:50:49;;;;;;;2.10;1.27;;;;;;;6.71;88.18;102165.69;5116114;28;20031;-73
2022/11/29 01:53:15;;;;;;;1.70;1.00;;;;;;;6.82;87.44;102177.13;5102338;28;20031;-73
2022/11/29 01:55:48;;;;;;;2.85;1.10;;;;;;;6.52;88.15;102139.78;5110957;28;20554;-73
2022/11/29 01:58:14;;;;;;;1.00;0.90;;;;;;;6.41;88.76;102132.72;5111799;28;20044;-73
2022/11/29 02:00:39;;;;;;;2.00;1.17;;;;;;;6.57;89.22;102172.31;5118626;28;20043;-73
2022/11/29 02:03:28;;;;;;;2.03;1.10;;;;;;;6.59;89.32;102173.84;5101816;28;20032;-73
2022/11/29 02:05:54;;;;;;;1.88;1.15;;;;;;;6.44;89.57;102167.22;5070709;28;20178;-73
2022/11/29 02:08:25;;;;;;;2.20;1.17;;;;;;;6.48;89.13;102163.28;5090113;28;20071;-73
2022/11/29 02:11:12;;;;;;;1.27;1.02;;;;;;;6.43;89.71;102168.22;5063638;28;20044;-73
2022/11/29 02:14:13;;;;;;;2.45;1.10;;;;;;;6.39;90.03;102172.16;5090582;28;20043;-73
2022/11/29 02:16:50;;;;;;;1.48;1.15;;;;;;;6.45;89.67;102174.25;5091205;28;20506;-73
2022/11/29 02:19:19;;;;;;;2.35;1.10;;;;;;;6.36;90.19;102172.41;5064111;28;20078;-73
2022/11/29 02:22:04;;;;;;;3.00;1.13;;;;;;;6.45;89.74;102174.25;5088560;28;20104;-73
2022/11/29 02:24:54;;;;;;;1.95;1.17;;;;;;;6.34;90.02;102171.72;5090758;28;20036;-73
2022/11/29 02:27:19;;;;;;;2.05;1.17;;;;;;;6.40;89.90;102171.16;5049076;28;20048;-72
2022/11/29 02:30:03;;;;;;;2.83;1.25;;;;;;;6.61;88.15;102172.88;5088482;28;20507;-73
2022/11/29 02:32:56;;;;;;;2.47;1.30;;;;;;;6.66;87.63;102181.34;5091016;28;20044;-73
2022/11/29 02:35:38;;;;;;;2.58;1.30;;;;;;;6.48;88.79;102179.31;5066809;28;20032;-73
2022/11/29 02:38:28;;;;;;;2.53;1.38;;;;;;;6.27;89.73;102174.09;5107521;28;20035;-73
2022/11/29 02:41:18;;;;;;;1.50;1.30;;;;;;;6.53;88.83;102174.41;5115895;28;20065;-73
2022/11/29 02:44:05;;;;;;;2.30;1.00;;;;;;;6.47;88.07;102161.59;5107305;28;20083;-73
2022/11/29 02:47:01;;;;;;;1.75;1.02;;;;;;;6.52;88.10;102180.75;5102605;28;20115;-73
2022/11/29 02:49:51;;;;;;;3.67;1.10;;;;;;;6.54;88.54;102189.47;5088483;28;20020;-72
2022/11/29 02:52:48;;;;;;;1.65;1.00;;;;;;;6.65;87.52;102185.81;5105932;28;20028;-73
2022/11/29 02:55:22;;;;;;;2.03;1.20;;;;;;;6.87;86.86;102195.41;5085773;28;20094;-73
2022/11/29 02:58:08;;;;;;;1.98;1.20;;;;;;;6.66;87.41;102184.00;5108750;28;20107;-73
2022/11/29 03:00:40;;;;;;;1.45;1.15;;;;;;;6.63;87.87;102186.97;5112876;28;20047;-73
2022/11/29 03:03:34;;;;;;;1.95;0.82;;;;;;;6.74;87.49;102190.31;5083483;28;20032;-73
2022/11/29 03:06:16;;;;;;;2.55;1.30;;;;;;;6.69;87.93;102186.38;5107339;28;20051;-73
2022/11/29 03:09:02;;;;;;;2.20;1.20;;;;;;;6.78;87.11;102190.88;5113658;28;20027;-73
2022/11/29 03:11:46;;;;;;;1.52;1.10;;;;;;;6.64;88.17;102191.31;5088547;28;20035;-73
2022/11/29 03:14:23;;;;;;;1.60;1.10;;;;;;;6.54;88.16;102176.09;5106416;28;20028;-73
2022/11/29 03:17:07;;;;;;;1.75;1.00;;;;;;;6.66;88.11;102203.56;5113932;28;20062;-73
2022/11/29 03:19:48;;;;;;;1.88;1.10;;;;;;;6.55;89.13;102196.50;5104279;28;20016;-73
2022/11/29 03:22:16;;;;;;;1.48;0.90;;;;;;;6.63;88.50;102201.16;5105234;28;20409;-73
2022/11/29 03:25:17;;;;;;;2.40;1.30;;;;;;;6.58;88.97;102198.06;5113296;28;20074;-73
2022/11/29 03:27:50;;;;;;;1.63;1.00;;;;;;;6.60;88.80;102193.41;5092586;28;20020;-73
2022/11/29 03:30:17;;;;;;;2.05;1.15;;;;;;;6.57;88.54;102189.19;5104482;28;20028;-73
2022/11/29 03:32:55;;;;;;;2.40;1.23;;;;;;;6.58;88.62;102190.88;5113782;28;20065;-73
2022/11/29 03:35:36;;;;;;;2.05;1.25;;;;;;;6.68;88.16;102198.91;5086496;28;20030;-73
2022/11/29 03:38:13;;;;;;;3.60;1.20;;;;;;;6.64;88.09;102188.63;5106458;28;20024;-72
2022/11/29 03:41:03;;;;;;;4.78;1.38;;;;;;;6.58;88.63;102198.06;5112857;28;20345;-73
2022/11/29 03:44:13;;;;;;;1.75;1.17;;;;;;;6.01;88.09;102090.06;5086936;28;20478;-73
2022/11/29 03:46:45;;;;;;;0.98;0.85;;;;;;;6.76;87.20;102192.88;5086502;28;20040;-73
2022/11/29 03:49:28;;;;;;;1.88;1.17;;;;;;;6.62;87.82;102195.94;5113327;28;20485;-73
2022/11/29 03:51:59;;;;;;;1.65;1.08;;;;;;;6.30;87.94;102144.41;5106169;28;20027;-73
2022/11/29 03:54:33;;;;;;;1.65;0.93;;;;;;;6.24;89.50;102161.00;5103171;28;20031;-73
2022/11/29 03:56:59;;;;;;;1.38;0.90;;;;;;;6.59;88.55;102197.09;5113572;28;20044;-72
2022/11/29 03:59:50;;;;;;;1.80;1.20;;;;;;;6.50;89.59;102196.09;5083907;28;20087;-72
2022/11/29 04:02:46;;;;;;;1.50;1.20;;;;;;;6.58;88.89;102201.56;5104560;28;20398;-73
2022/11/29 04:05:45;;;;;;;2.47;1.58;;;;;;;6.50;89.42;102198.75;5100502;28;20079;-73
2022/11/29 04:08:11;;;;;;;2.33;1.33;;;;;;;6.30;90.74;102211.22;5105053;28;20023;-73
2022/11/29 04:11:20;;;;;;;3.15;1.88;;;;;;;6.29;91.00;102201.53;5111149;28;20110;-73
2022/11/29 04:14:06;;;;;;;2.47;1.77;;;;;;;6.34;90.60;102209.97;5092567;28;20068;-72
2022/11/29 04:16:48;;;;;;;2.22;1.70;;;;;;;6.31;91.24;102204.91;5103180;28;20483;-74
2022/11/29 04:19:34;;;;;;;3.60;1.50;;;;;;;6.30;91.57;102210.41;5114006;28;20032;-72
2022/11/29 04:22:12;;;;;;;1.63;1.15;;;;;;;6.54;90.41;102202.84;5107024;28;20047;-72
2022/11/29 04:25:14;;;;;;;1.50;1.20;;;;;;;6.55;90.43;102212.53;5102020;28;20034;-72
2022/11/29 04:28:02;;;;;;;2.10;1.20;;;;;;;6.50;90.34;102217.47;5089657;28;20019;-72
2022/11/29 04:30:56;;;;;;;2.03;1.40;;;;;;;6.47;90.96;102214.22;5102500;28;20394;-72
2022/11/29 04:33:46;;;;;;;2.15;1.20;;;;;;;6.49;91.08;102215.78;5072784;28;20039;-72
2022/11/29 04:36:27;;;;;;;1.55;1.10;;;;;;;6.53;90.72;102213.69;5105823;28;20020;-72
2022/11/29 04:38:58;;;;;;;2.10;1.20;;;;;;;6.50;91.18;102219.31;5116181;28;20038;-73
2022/11/29 04:41:42;;;;;;;2.70;1.50;;;;;;;6.26;92.38;102219.69;5112581;28;20106;-74
2022/11/29 04:44:31;;;;;;;3.20;1.42;;;;;;;6.44;92.06;102226.03;5110680;28;20505;-72
2022/11/29 04:47:12;;;;;;;2.13;1.30;;;;;;;6.49;91.83;102225.63;5116494;28;20023;-73
2022/11/29 04:50:26;;;;;;;5.32;1.55;;;;;;;6.44;92.81;102219.84;5106197;28;20027;-72
2022/11/29 04:53:27;;;;;;;2.92;1.50;;;;;;;6.45;92.91;102225.03;5104375;28;20032;-73
2022/11/29 04:55:58;;;;;;;2.95;1.33;;;;;;;6.51;92.28;102221.00;5111990;28;20028;-72
2022/11/29 04:58:41;;;;;;;1.85;1.33;;;;;;;6.46;92.67;102221.41;5113317;28;20054;-74
2022/11/29 05:01:42;;;;;;;2.53;1.33;;;;;;;6.48;93.07;102227.44;5102943;28;20398;-69
2022/11/29 05:04:41;;;;;;;1.70;1.30;;;;;;;6.62;92.49;102220.84;5108772;28;20035;-69
2022/11/29 05:07:45;;;;;;;2.85;1.27;;;;;;;6.68;92.23;102227.50;5118239;28;20043;-71
2022/11/29 05:10:16;;;;;;;1.90;1.20;;;;;;;6.77;91.18;102222.16;5070104;28;20032;-69
2022/11/29 05:12:52;;;;;;;3.78;1.60;;;;;;;6.67;91.51;102232.00;5062945;28;20045;-69
2022/11/29 05:15:42;;;;;;;1.58;1.05;;;;;;;6.72;91.98;102229.75;5043109;28;20503;-68
2022/11/29 05:18:20;;;;;;;2.25;1.13;;;;;;;6.72;92.34;102231.56;5040222;28;20029;-69
2022/11/29 05:21:08;;;;;;;2.20;1.10;;;;;;;6.78;91.09;102225.66;5039874;28;20052;-70
2022/11/29 05:24:07;;;;;;;1.95;1.30;;;;;;;6.72;92.09;102234.25;5050064;28;20059;-72
2022/11/29 05:26:49;;;;;;;1.90;1.02;;;;;;;6.57;93.03;102223.97;5063872;28;20131;-71
2022/11/29 05:29:14;;;;;;;3.88;1.20;;;;;;;6.61;92.84;102229.03;5054370;28;20383;-70
2022/11/29 05:32:00;;;;;;;2.72;1.08;;;;;;;6.59;93.43;102232.69;5047511;28;20016;-71
2022/11/29 05:34:36;;;;;;;1.88;1.08;;;;;;;6.45;94.18;102233.06;5034700;28;20036;-71
2022/11/29 05:37:26;;;;;;;1.48;1.10;;;;;;;6.46;95.33;102231.25;5057607;28;20372;-70
2022/11/29 05:40:03;;;;;;;1.30;1.02;;;;;;;6.50;95.19;102230.84;5049747;28;20549;-71
2022/11/29 05:42:37;;;;;;;1.55;1.13;;;;;;;6.54;95.15;102234.09;5106520;28;20494;-71
2022/11/29 05:45:21;;;;;;;1.60;0.93;;;;;;;6.53;95.30;102235.91;5115225;28;20512;-71
2022/11/29 05:48:00;;;;;;;1.77;1.17;;;;;;;6.33;96.18;102215.47;5106260;28;20034;-71
2022/11/29 05:50:38;;;;;;;2.38;0.90;;;;;;;6.56;95.58;102238.31;5107430;28;20028;-72
2022/11/29 05:53:40;;;;;;;3.25;1.00;;;;;;;6.64;95.26;102234.09;5116432;28;20039;-72
2022/11/29 05:56:19;;;;;;;2.75;1.00;;;;;;;6.47;95.56;102217.75;5077054;28;20169;-72
2022/11/29 05:58:52;;;;;;;2.25;0.98;;;;;;;6.78;94.61;102244.41;5060261;28;20474;-72
2022/11/29 06:01:20;;;;;;;2.10;1.20;;;;;;;6.75;94.52;102242.84;5060955;28;20541;-72
2022/11/29 06:04:04;;;;;;;2.33;1.27;;;;;;;6.74;94.19;102243.00;5077283;28;20024;-72
2022/11/29 06:06:57;;;;;;;1.60;1.10;;;;;;;6.70;94.92;102254.97;5060602;28;20037;-71
2022/11/29 06:09:36;;;;;;;1.45;1.08;;;;;;;6.94;93.80;102250.03;5044267;28;20031;-71
2022/11/29 06:12:12;;;;;;;1.90;1.23;;;;;;;6.86;93.87;102249.06;5071603;28;20078;-70
2022/11/29 06:15:01;;;;;;;2.97;1.38;;;;;;;6.77;94.76;102261.44;5074808;28;20071;-71
2022/11/29 06:18:05;;;;;;;1.45;0.90;;;;;;;6.82;94.62;102261.84;5072760;28;20442;-70
2022/11/29 06:20:39;;;;;;;1.38;1.00;;;;;;;6.79;95.03;102270.19;5076044;28;20032;-70
2022/11/29 06:23:08;;;;;;;;;;;;;;;6.92;94.72;102264.53;5060437;28;20028;-71
2022/11/29 06:25:43;;;;;;;2.88;1.23;;;;;;;6.76;95.01;102273.97;5059489;28;19991;-70
2022/11/29 06:28:41;;;;;;;1.55;1.00;;;;;;;6.74;95.57;102272.41;5097125;28;20036;-70
2022/11/29 06:31:43;;;;;;;2.42;1.02;;;;;;;6.97;94.79;102278.38;5114065;28;20108;-71
2022/11/29 06:34:08;;;;;;;2.50;1.10;;;;;;;7.02;93.78;102273.47;5064793;28;20138;-71
2022/11/29 06:36:45;;;;;;;1.80;0.90;;;;;;;6.85;94.98;102280.31;5112954;28;20051;-71
2022/11/29 06:39:11;;;;;;;1.42;0.93;;;;;;;6.74;95.72;102283.97;5100636;28;20032;-71
2022/11/29 06:41:37;;;;;;;1.42;1.10;;;;;;;6.89;95.29;102287.09;5111480;28;20050;-71
2022/11/29 06:44:03;;;;;;;1.50;1.10;;;;;;;6.82;95.40;102280.59;5090695;28;20114;-71
2022/11/29 06:46:46;;;;;;;3.72;1.00;;;;;;;6.98;95.07;102288.91;5099752;28;20525;-72
2022/11/29 06:49:25;;;;;;;1.58;1.15;;;;;;;7.07;93.80;102288.09;5106493;28;20032;-71
2022/11/29 06:51:58;;;;;;;1.30;0.90;;;;;;;6.86;94.29;102255.25;5104981;27;20020;-71
2022/11/29 06:54:47;;;;;;;2.85;1.30;;;;;;;7.03;94.32;102305.41;5095738;28;20398;-71
2022/11/29 06:57:47;;;;;;;1.70;1.30;;;;;;;7.02;94.83;102309.09;5098329;28;20428;-71
2022/11/29 07:00:20;;;;;;;1.95;1.17;;;;;;;7.15;94.31;102310.63;5013129;28;20047;-71
2022/11/29 07:03:23;;;;;;;1.80;1.20;;;;;;;6.96;94.65;102308.78;5093899;28;20542;-71
2022/11/29 07:05:49;;;;;;;3.40;1.30;;;;;;;6.92;94.49;102294.84;5096542;28;20024;-72
2022/11/29 07:08:20;;;;;;;3.38;1.38;;;;;;;7.10;94.45;102319.09;5090805;28;20042;-72
2022/11/29 07:10:48;;;;;;;2.55;1.55;;;;;;;6.96;94.98;102316.81;5101220;28;20383;-72
2022/11/29 07:13:15;;;;;;;2.05;1.70;;;;;;;7.15;94.33;102324.00;5103437;28;20106;-72
2022/11/29 07:15:51;;;;;;;3.40;2.50;;;;;;;7.24;93.76;102325.88;5111573;28;20032;-72
2022/11/29 07:19:14;;;;;;;2.80;1.70;;;;;;;7.18;93.94;102318.38;5109515;28;20491;-72
2022/11/29 07:22:04;;;;;;;59.67;33.58;;;;;;;7.29;93.61;102318.25;5031749;28;20040;-72
2022/11/29 07:24:44;;;;;;;38.75;22.48;;;;;;;7.36;93.22;102327.44;5035336;28;20030;-73
2022/11/29 07:27:44;;;;;;;3.47;2.55;;;;;;;7.29;93.52;102328.97;5062629;28;20483;-72
2022/11/29 07:30:15;;;;;;;6.50;2.35;;;;;;;7.29;93.46;102328.97;5107144;28;20032;-72
2022/11/29 07:33:02;;;;;;;4.03;3.13;;;;;;;7.28;93.75;102340.66;5111265;28;20028;-72
2022/11/29 07:35:59;;;;;;;3.97;2.50;;;;;;;7.25;94.01;102336.44;5084499;28;20032;-71
2022/11/29 07:38:43;;;;;;;3.35;2.55;;;;;;;6.81;94.18;102270.88;5101768;28;20088;-72
2022/11/29 07:41:35;;;;;;;2.88;2.42;;;;;;;7.20;94.67;102336.00;5111272;28;20039;-73
2022/11/29 07:44:38;;;;;;;5.50;2.83;;;;;;;7.46;93.02;102340.81;5103409;28;20048;-72
2022/11/29 07:47:04;;;;;;;2.75;2.20;;;;;;;7.23;92.88;102308.13;5035870;28;20607;-72
2022/11/29 07:49:29;;;;;;;5.93;2.30;;;;;;;7.26;94.07;102345.31;5094985;28;20095;-72
2022/11/29 07:51:55;;;;;;;4.00;2.65;;;;;;;7.32;94.12;102344.75;5104929;28;20061;-72
2022/11/29 07:54:21;;;;;;;2.85;1.70;;;;;;;7.36;94.44;102342.66;5104433;28;20092;-72
2022/11/29 07:56:46;;;;;;;3.40;2.05;;;;;;;7.38;94.00;102346.00;5112158;28;20799;-72
2022/11/29 07:59:13;;;;;;;5.97;2.00;;;;;;;7.29;94.56;102353.91;5100489;28;20130;-72
2022/11/29 08:01:39;;;;;;;3.90;1.98;;;;;;;7.52;92.95;102345.63;5110160;28;20031;-72
2022/11/29 08:04:06;;;;;;;2.83;1.80;;;;;;;7.41;94.13;102349.25;5088717;28;20035;-72
2022/11/29 08:06:31;;;;;;;1.65;1.50;;;;;;;7.45;93.87;102353.38;5104165;28;20032;-72
2022/11/29 08:08:58;;;;;;;2.63;1.83;;;;;;;7.59;93.34;102360.13;5112061;28;20061;-72
2022/11/29 08:11:23;;;;;;;2.72;1.58;;;;;;;7.33;93.42;102329.53;5100889;28;20034;-72
2022/11/29 08:13:49;;;;;;;1.17;1.02;;;;;;;7.46;93.73;102357.72;5106956;28;20110;-72
2022/11/29 08:16:17;;;;;;;3.03;1.50;;;;;;;7.48;93.18;102358.44;5107861;28;20042;-72
2022/11/29 08:18:43;;;;;;;1.38;1.00;;;;;;;7.25;94.32;102357.00;5100625;28;20047;-72
2022/11/29 08:21:09;;;;;;;2.10;1.20;;;;;;;7.39;93.59;102343.22;5113485;28;20053;-72
2022/11/29 08:23:34;;;;;;;2.45;1.40;;;;;;;7.49;93.32;102354.78;5102811;28;20023;-72
2022/11/29 08:26:01;;;;;;;3.38;1.40;;;;;;;7.47;93.49;102364.78;5108176;28;20387;-72
2022/11/29 08:28:27;;;;;;;2.60;1.20;;;;;;;7.43;93.13;102366.03;5091347;28;20075;-72
2022/11/29 08:31:03;;;;;;;2.25;1.17;;;;;;;7.38;93.44;102364.75;5099388;28;20020;-72
2022/11/29 08:33:29;;;;;;;2.00;1.20;;;;;;;7.27;93.38;102331.78;5085642;28;20035;-72
2022/11/29 08:35:55;;;;;;;1.52;1.27;;;;;;;7.69;92.17;102370.84;5108756;28;20020;-72
2022/11/29 08:38:21;;;;;;;1.90;1.20;;;;;;;7.74;91.97;102372.09;5109220;28;20478;-72
2022/11/29 08:40:47;;;;;;;2.30;1.40;;;;;;;7.50;92.31;102359.13;5083317;28;20449;-72
2022/11/29 08:43:12;;;;;;;1.65;1.30;;;;;;;7.56;92.57;102375.63;5111942;28;20042;-72
2022/11/29 08:45:37;;;;;;;3.08;1.63;;;;;;;7.71;92.01;102372.38;5084343;28;20027;-72
2022/11/29 08:48:03;;;;;;;1.42;1.20;;;;;;;7.61;92.51;102370.69;5105876;28;20418;-72
2022/11/29 08:50:28;;;;;;;1.58;1.40;;;;;;;7.59;92.19;102370.00;5091165;28;20030;-72
2022/11/29 08:55:41;;;;;;;1.80;1.20;;;;;;;7.74;91.84;102379.28;5087410;28;20042;-72
2022/11/29 08:58:12;;;;;;;1.73;1.33;;;;;;;7.76;92.13;102386.19;5106972;28;20036;-72
2022/11/29 09:00:38;;;;;;;1.80;1.33;;;;;;;7.42;92.22;102355.47;5110649;28;20096;-72
2022/11/29 09:05:50;;;;;;;1.73;1.30;;;;;;;7.53;93.25;102388.31;5109387;28;20115;-72
2022/11/29 09:08:15;;;;;;;2.67;1.10;;;;;;;7.60;92.93;102387.75;5106336;28;20078;-72
2022/11/29 09:10:41;;;;;;;2.90;1.27;;;;;;;7.51;93.12;102387.59;5100782;28;20039;-72
2022/11/29 09:13:08;;;;;;;2.45;1.33;;;;;;;7.54;92.97;102373.09;5113418;28;20061;-72
2022/11/29 09:15:35;;;;;;;2.15;1.45;;;;;;;7.50;93.06;102390.44;5099949;28;20107;-72
2022/11/29 09:18:01;;;;;;;2.40;1.50;;;;;;;7.72;92.25;102389.31;5108195;28;20054;-72
2022/11/29 09:20:26;;;;;;;1.60;1.08;;;;;;;7.70;91.46;102357.28;5108957;28;20027;-72
2022/11/29 09:22:52;;;;;;;1.83;1.17;;;;;;;7.65;91.81;102358.69;5065806;28;20036;-72
2022/11/29 09:25:19;;;;;;;4.32;1.50;;;;;;;7.78;91.33;102380.69;5097408;28;20055;-72
2022/11/29 09:27:45;;;;;;;1.70;1.50;;;;;;;7.82;90.65;102384.81;5088782;28;20027;-72
2022/11/29 09:30:10;;;;;;;2.17;1.40;;;;;;;7.86;90.50;102370.13;5091630;28;20158;-72
2022/11/29 09:32:36;;;;;;;1.90;1.30;;;;;;;8.10;90.27;102390.25;5112498;27;20032;-72
2022/11/29 09:35:01;;;;;;;3.47;1.48;;;;;;;8.10;89.81;102387.56;5102932;28;20081;-72
2022/11/29 09:37:27;;;;;;;1.63;1.40;;;;;;;7.93;89.90;102376.59;5097470;28;20032;-72
2022/11/29 09:39:52;;;;;;;2.33;1.40;;;;;;;7.39;89.89;102286.13;5088703;28;20030;-72
2022/11/29 09:42:56;;;;;;;1.52;1.38;;;;;;;8.14;89.36;102402.38;5107670;28;20044;-72
2022/11/29 09:45:44;;;;;;;2.10;1.40;;;;;;;8.18;89.38;102401.97;5079322;28;20043;-72
2022/11/29 09:48:35;;;;;;;4.18;1.40;;;;;;;8.04;89.88;102399.72;5109540;28;20020;-73
2022/11/29 09:51:22;;;;;;;2.42;1.50;;;;;;;7.98;90.31;102395.78;5116223;28;20058;-72
2022/11/29 09:53:59;;;;;;;2.33;1.60;;;;;;;8.05;89.94;102396.06;5105123;28;20027;-72
2022/11/29 09:56:43;;;;;;;2.70;1.70;;;;;;;8.15;89.22;102393.38;5107424;28;20027;-72
2022/11/29 09:59:35;;;;;;;2.65;1.90;;;;;;;7.90;89.29;102366.16;5114118;28;20039;-72
2022/11/29 10:02:12;;;;;;;4.72;1.83;;;;;;;8.13;89.52;102398.84;5108982;28;20046;-72
2022/11/29 10:04:43;;;;;;;3.30;1.90;;;;;;;8.36;88.09;102403.88;5104354;28;20448;-72
2022/11/29 10:07:40;;;;;;;4.32;2.40;;;;;;;8.48;87.80;102397.41;5114618;28;20027;-72
2022/11/29 10:10:14;;;;;;;3.28;1.90;;;;;;;8.44;88.24;102396.84;5076582;28;20033;-72
2022/11/29 10:12:54;;;;;;;4.32;1.90;;;;;;;8.49;87.52;102406.28;5076505;28;20032;-72
2022/11/29 10:15:26;;;;;;;4.05;2.15;;;;;;;8.41;87.41;102402.50;5039438;28;20035;-72
2022/11/29 10:17:54;;;;;;;2.85;2.10;;;;;;;8.56;87.07;102397.50;5077040;28;20249;-72
2022/11/29 10:20:29;;;;;;;3.83;2.10;;;;;;;8.75;86.42;102393.06;5059210;28;20136;-72
2022/11/29 10:23:01;;;;;;;2.90;1.98;;;;;;;8.79;85.64;102406.03;5076506;28;20028;-73
2022/11/29 10:25:34;;;;;;;3.03;2.05;;;;;;;8.68;85.49;102390.97;5060474;28;20043;-72
2022/11/29 10:28:00;;;;;;;3.13;2.05;;;;;;;8.39;85.08;102380.34;5059455;28;20403;-72
2022/11/29 10:30:26;;;;;;;2.90;2.10;;;;;;;8.68;84.13;102398.19;5042730;28;20077;-72
2022/11/29 10:32:56;;;;;;;4.47;2.22;;;;;;;8.52;83.51;102408.69;5076182;28;20044;-72
2022/11/29 10:35:22;;;;;;;2.85;2.13;;;;;;;8.81;83.82;102398.69;5076025;28;20547;-72
2022/11/29 10:37:53;;;;;;;3.17;1.88;;;;;;;8.74;83.51;102370.75;5075988;28;20036;-72
2022/11/29 10:40:31;;;;;;;3.50;2.40;;;;;;;8.82;81.36;102403.03;5066445;28;20441;-72
2022/11/29 10:42:57;;;;;;;3.05;2.42;;;;;;;8.72;79.96;102401.41;5114273;28;20027;-72
2022/11/29 10:45:37;;;;;;;2.85;2.00;;;;;;;8.57;79.14;102396.50;5100420;28;20028;-72
2022/11/29 10:48:14;;;;;;;2.78;2.00;;;;;;;8.27;78.16;102399.38;5109909;28;20089;-72
2022/11/29 10:50:42;;;;;;;3.17;2.35;;;;;;;8.41;78.95;102412.38;5112431;28;20072;-72
2022/11/29 10:53:30;;;;;;;3.40;2.20;;;;;;;8.50;78.51;102411.50;5100775;28;20516;-72
2022/11/29 10:56:00;;;;;;;5.00;2.03;;;;;;;8.54;78.85;102387.91;5110852;28;20097;-72
2022/11/29 10:58:30;;;;;;;3.10;2.00;;;;;;;8.27;78.39;102410.97;5110599;28;20529;-72
2022/11/29 11:00:56;;;;;;;3.33;2.13;;;;;;;8.22;79.32;102414.09;5084144;28;20047;-72
2022/11/29 11:03:34;;;;;;;3.63;2.10;;;;;;;8.26;79.14;102421.84;5114840;28;20024;-72
2022/11/29 11:06:07;;;;;;;4.18;2.05;;;;;;;8.04;80.82;102398.88;5106817;28;20075;-72
2022/11/29 11:08:33;;;;;;;3.33;1.90;;;;;;;8.07;82.19;102420.03;5104154;28;20027;-73
2022/11/29 11:11:00;;;;;;;4.00;2.30;;;;;;;7.95;82.41;102390.72;5113611;28;20051;-72
2022/11/29 11:13:29;;;;;;;4.38;2.05;;;;;;;7.98;84.70;102419.06;5084025;28;20031;-72
2022/11/29 11:16:08;;;;;;;4.05;1.90;;;;;;;7.99;85.65;102412.72;5110715;28;20027;-72
2022/11/29 11:18:34;;;;;;;4.95;1.85;;;;;;;8.02;86.13;102415.09;5110237;28;20067;-72
2022/11/29 11:21:01;;;;;;;2.45;1.88;;;;;;;8.10;85.70;102412.53;5100408;28;20108;-72
2022/11/29 11:23:31;;;;;;;2.63;1.95;;;;;;;8.09;86.78;102418.06;5113228;28;20554;-72
2022/11/29 11:26:03;;;;;;;3.47;1.90;;;;;;;8.24;86.10;102396.03;5104763;28;20035;-72
2022/11/29 11:28:35;;;;;;;3.85;2.00;;;;;;;8.08;86.59;102360.91;5105597;28;20028;-72
2022/11/29 11:31:05;;;;;;;5.30;1.85;;;;;;;8.45;86.19;102420.00;5113052;28;20036;-72
2022/11/29 11:33:42;;;;;;;4.88;1.75;;;;;;;8.30;86.49;102396.41;5101978;28;20396;-72
2022/11/29 11:36:19;;;;;;;4.72;1.65;;;;;;;8.63;85.75;102421.91;5106893;28;20520;-72
2022/11/29 11:38:55;;;;;;;3.30;1.63;;;;;;;8.26;85.46;102357.47;5112555;28;20031;-72
2022/11/29 11:44:19;;;;;;;2.80;1.80;;;;;;;8.15;89.09;102422.84;5107401;28;20035;-72
2022/11/29 11:46:46;;;;;;;2.97;2.10;;;;;;;8.17;89.12;102423.53;5112083;28;20066;-72
2022/11/29 11:49:19;;;;;;;2.30;1.90;;;;;;;8.32;88.27;102426.63;5099696;28;20028;-72
2022/11/29 11:51:45;;;;;;;3.60;1.95;;;;;;;8.22;88.25;102397.16;5110022;28;20032;-72
2022/11/29 11:54:15;;;;;;;2.95;1.75;;;;;;;8.41;88.14;102415.91;5106351;28;20039;-73
2022/11/29 11:56:41;;;;;;;3.33;2.10;;;;;;;8.38;88.00;102413.53;5085365;28;20036;-72
2022/11/29 11:59:35;;;;;;;3.78;2.00;;;;;;;8.11;89.38;102414.25;5113712;28;20090;-72
2022/11/29 12:02:00;;;;;;;3.78;1.95;;;;;;;8.22;88.35;102408.72;5074721;28;20041;-72
2022/11/29 12:04:32;;;;;;;2.85;2.30;;;;;;;8.26;89.09;102408.44;5057897;28;20055;-72
2022/11/29 12:06:58;;;;;;;3.92;2.20;;;;;;;8.22;88.67;102400.69;5057757;28;20406;-72
2022/11/29 12:09:38;;;;;;;3.95;1.90;;;;;;;8.19;88.75;102402.81;5073992;28;20024;-73
2022/11/29 12:12:21;;;;;;;2.97;2.05;;;;;;;8.24;88.58;102406.75;5074356;28;20074;-72
2022/11/29 12:15:01;;;;;;;7.22;2.00;;;;;;;8.11;88.28;102399.97;5057361;28;20029;-72
2022/11/29 12:17:31;;;;;;;2.55;1.90;;;;;;;8.11;89.13;102402.66;5041734;28;20066;-72
2022/11/29 12:20:12;;;;;;;2.42;1.88;;;;;;;8.23;88.11;102402.34;5057527;28;20029;-72
2022/11/29 12:22:44;;;;;;;4.15;1.48;;;;;;;8.09;87.45;102404.66;5057334;28;20044;-72